createdAt,value
2018-08-10T00:01:25.221Z,20.80
2018-08-10T00:03:59.628Z,20.70
2018-08-10T00:06:33.917Z,20.70
2018-08-10T00:09:09.990Z,20.60
2018-08-10T00:11:44.337Z,20.60
2018-08-10T00:14:18.657Z,20.50
2018-08-10T00:16:52.930Z,20.60
2018-08-10T00:19:27.177Z,20.40
2018-08-10T00:22:01.501Z,20.30
2018-08-10T00:24:35.686Z,20.40
2018-08-10T00:27:09.922Z,20.30
2018-08-10T00:29:44.150Z,20.20
2018-08-10T00:32:18.458Z,20.20
2018-08-10T00:34:52.633Z,20.10
2018-08-10T00:37:26.946Z,20.00
2018-08-10T00:40:01.198Z,20.00
2018-08-10T00:42:35.581Z,20.10
2018-08-10T00:45:11.051Z,20.00
2018-08-10T00:47:45.894Z,20.00
2018-08-10T00:50:20.243Z,19.80
2018-08-10T00:52:54.471Z,19.80
2018-08-10T00:55:28.854Z,19.80
2018-08-10T00:58:03.126Z,19.70
2018-08-10T01:00:37.398Z,19.70
2018-08-10T01:03:11.606Z,19.80
2018-08-10T01:05:45.905Z,19.70
2018-08-10T01:08:20.293Z,19.60
2018-08-10T01:10:54.590Z,19.60
2018-08-10T01:13:29.013Z,19.50
2018-08-10T01:16:03.358Z,19.40
2018-08-10T01:18:37.686Z,19.40
2018-08-10T01:21:11.973Z,19.40
2018-08-10T01:23:46.250Z,19.40
2018-08-10T01:26:20.569Z,19.40
2018-08-10T01:28:54.976Z,19.30
2018-08-10T01:31:29.220Z,19.40
2018-08-10T01:34:03.534Z,19.40
2018-08-10T01:36:37.803Z,19.30
2018-08-10T01:39:12.242Z,19.30
2018-08-10T01:41:46.555Z,19.30
2018-08-10T01:44:20.847Z,19.30
2018-08-10T01:46:55.115Z,19.10
2018-08-10T01:49:29.311Z,19.20
2018-08-10T01:52:03.654Z,19.00
2018-08-10T01:54:38.251Z,19.10
2018-08-10T01:57:12.450Z,19.10
2018-08-10T01:59:46.869Z,18.90
2018-08-10T02:02:21.118Z,19.00
2018-08-10T02:04:55.546Z,18.90
2018-08-10T02:07:29.863Z,18.90
2018-08-10T02:10:06.583Z,18.80
2018-08-10T02:12:41.652Z,18.80
2018-08-10T02:15:17.069Z,18.80
2018-08-10T02:17:51.270Z,18.70
2018-08-10T02:20:26.041Z,18.70
2018-08-10T02:23:00.356Z,18.70
2018-08-10T02:25:34.737Z,18.60
2018-08-10T02:28:09.101Z,18.40
2018-08-10T02:30:43.407Z,18.30
2018-08-10T02:33:17.751Z,18.40
2018-08-10T02:35:52.026Z,18.30
2018-08-10T02:38:26.286Z,18.40
2018-08-10T02:41:00.600Z,18.40
2018-08-10T02:43:34.706Z,18.40
2018-08-10T02:46:09.145Z,18.30
2018-08-10T02:48:43.413Z,18.30
2018-08-10T02:51:17.718Z,18.30
2018-08-10T02:53:51.911Z,18.30
2018-08-10T02:56:26.207Z,18.20
2018-08-10T02:59:00.506Z,18.30
2018-08-10T03:01:34.998Z,18.20
2018-08-10T03:04:09.340Z,18.00
2018-08-10T03:06:43.550Z,18.10
2018-08-10T03:09:17.803Z,18.10
2018-08-10T03:11:52.131Z,18.20
2018-08-10T03:14:26.378Z,18.20
2018-08-10T03:17:00.628Z,18.20
2018-08-10T03:19:34.846Z,18.20
2018-08-10T03:22:09.357Z,18.10
2018-08-10T03:24:43.566Z,18.10
2018-08-10T03:27:18.043Z,17.90
2018-08-10T03:29:52.382Z,18.00
2018-08-10T03:32:26.681Z,17.90
2018-08-10T03:35:00.957Z,17.70
2018-08-10T03:37:35.581Z,17.80
2018-08-10T03:40:11.696Z,17.70
2018-08-10T03:42:46.153Z,17.70
2018-08-10T03:45:20.355Z,17.80
2018-08-10T03:47:54.682Z,17.80
2018-08-10T03:50:28.986Z,17.70
2018-08-10T03:53:03.555Z,17.70
2018-08-10T03:55:37.863Z,17.60
2018-08-10T03:58:12.314Z,17.70
2018-08-10T04:00:46.570Z,17.70
2018-08-10T04:03:20.881Z,17.70
2018-08-10T04:05:55.162Z,17.70
2018-08-10T04:08:29.486Z,17.70
2018-08-10T04:11:03.762Z,17.60
2018-08-10T04:13:38.203Z,17.40
2018-08-10T04:16:12.500Z,17.50
2018-08-10T04:18:46.683Z,17.50
2018-08-10T04:21:20.935Z,17.60
2018-08-10T04:23:55.281Z,17.60
2018-08-10T04:26:29.609Z,17.50
2018-08-10T04:29:04.011Z,17.60
2018-08-10T04:31:38.218Z,17.50
2018-08-10T04:34:12.435Z,17.50
2018-08-10T04:36:46.851Z,17.40
2018-08-10T04:39:21.230Z,17.50
2018-08-10T04:41:55.541Z,17.40
2018-08-10T04:44:29.957Z,17.40
2018-08-10T04:47:04.144Z,17.30
2018-08-10T04:49:38.430Z,17.40
2018-08-10T04:52:12.722Z,17.30
2018-08-10T04:54:47.074Z,17.40
2018-08-10T04:57:21.381Z,17.30
2018-08-10T04:59:55.777Z,17.30
2018-08-10T05:02:30.092Z,17.30
2018-08-10T05:05:05.398Z,17.20
2018-08-10T05:07:40.594Z,17.00
2018-08-10T05:10:14.829Z,17.10
2018-08-10T05:12:49.091Z,17.00
2018-08-10T05:15:23.368Z,17.00
2018-08-10T05:17:57.687Z,17.00
2018-08-10T05:20:31.973Z,17.00
2018-08-10T05:23:06.306Z,17.10
2018-08-10T05:25:40.570Z,17.00
2018-08-10T05:28:14.926Z,16.90
2018-08-10T05:30:49.147Z,17.00
2018-08-10T05:33:23.466Z,16.90
2018-08-10T05:35:57.862Z,17.00
2018-08-10T05:38:32.039Z,17.00
2018-08-10T05:41:06.342Z,16.90
2018-08-10T05:43:41.030Z,17.00
2018-08-10T05:46:15.449Z,17.10
2018-08-10T05:48:49.685Z,17.10
2018-08-10T05:51:24.130Z,17.10
2018-08-10T05:53:58.445Z,17.10
2018-08-10T05:56:32.745Z,17.10
2018-08-10T05:59:07.026Z,17.10
2018-08-10T06:01:41.339Z,17.20
2018-08-10T06:04:15.547Z,17.30
2018-08-10T06:06:49.801Z,17.30
2018-08-10T06:09:24.065Z,17.20
2018-08-10T06:11:58.445Z,17.10
2018-08-10T06:14:32.741Z,17.10
2018-08-10T06:17:06.931Z,17.00
2018-08-10T06:19:41.299Z,17.20
2018-08-10T06:22:15.537Z,17.30
2018-08-10T06:24:50.098Z,17.30
2018-08-10T06:27:24.266Z,17.30
2018-08-10T06:29:58.565Z,17.30
2018-08-10T06:32:33.081Z,17.20
2018-08-10T06:35:07.694Z,17.30
2018-08-10T06:37:41.963Z,17.40
2018-08-10T06:40:16.195Z,17.30
2018-08-10T06:42:50.546Z,17.40
2018-08-10T06:45:24.934Z,17.30
2018-08-10T06:47:59.227Z,17.40
2018-08-10T06:50:33.440Z,17.50
2018-08-10T06:53:07.940Z,17.50
2018-08-10T06:55:42.297Z,17.50
2018-08-10T06:58:16.533Z,17.70
2018-08-10T07:00:50.788Z,17.70
2018-08-10T07:03:25.247Z,17.70
2018-08-10T07:05:59.682Z,17.70
2018-08-10T07:08:34.087Z,17.80
2018-08-10T07:11:08.315Z,17.80
2018-08-10T07:13:42.620Z,17.80
2018-08-10T07:16:16.730Z,17.90
2018-08-10T07:18:51.233Z,17.70
2018-08-10T07:21:25.579Z,17.70
2018-08-10T07:23:59.999Z,17.80
2018-08-10T07:26:34.286Z,17.80
2018-08-10T07:29:08.583Z,17.90
2018-08-10T07:31:42.900Z,18.00
2018-08-10T07:34:17.241Z,18.00
2018-08-10T07:36:51.551Z,18.00
2018-08-10T07:39:25.859Z,18.00
2018-08-10T07:42:00.134Z,18.40
2018-08-10T07:44:34.433Z,18.40
2018-08-10T07:47:08.739Z,18.30
2018-08-10T07:49:43.118Z,18.30
2018-08-10T07:52:17.480Z,18.30
2018-08-10T07:54:51.692Z,18.30
2018-08-10T07:57:26.013Z,18.50
2018-08-10T08:00:00.274Z,18.50
2018-08-10T08:02:34.429Z,18.60
2018-08-10T08:05:08.877Z,18.80
2018-08-10T08:07:43.014Z,18.90
2018-08-10T08:10:17.250Z,18.90
2018-08-10T08:12:51.459Z,19.00
2018-08-10T08:15:25.794Z,19.10
2018-08-10T08:18:00.000Z,18.90
2018-08-10T08:20:34.194Z,19.20
2018-08-10T08:23:08.479Z,19.10
2018-08-10T08:25:42.839Z,19.30
2018-08-10T08:28:17.169Z,19.60
2018-08-10T08:30:51.590Z,19.50
2018-08-10T08:33:26.114Z,19.20
2018-08-10T08:36:01.571Z,19.20
2018-08-10T08:38:47.362Z,19.20
2018-08-10T08:41:21.623Z,19.40
2018-08-10T08:44:33.764Z,19.20
2018-08-10T08:47:07.906Z,19.20
2018-08-10T08:49:42.098Z,19.10
2018-08-10T08:52:16.409Z,19.00
2018-08-10T08:55:04.646Z,19.10
2018-08-10T08:57:38.987Z,19.40
2018-08-10T09:00:14.650Z,19.70
2018-08-10T09:02:48.843Z,19.80
2018-08-10T09:05:23.002Z,19.70
2018-08-10T09:07:57.278Z,19.70
2018-08-10T09:10:31.612Z,19.70
2018-08-10T09:13:05.814Z,19.80
2018-08-10T09:15:40.126Z,20.00
2018-08-10T09:18:14.458Z,20.30
2018-08-10T09:20:48.730Z,20.40
2018-08-10T09:23:23.174Z,20.50
2018-08-10T09:25:57.510Z,20.30
2018-08-10T09:28:31.913Z,20.30
2018-08-10T09:31:06.082Z,20.60
2018-08-10T09:33:40.261Z,20.30
2018-08-10T09:36:14.446Z,20.30
2018-08-10T09:38:48.602Z,20.50
2018-08-10T09:41:22.902Z,20.90
2018-08-10T09:43:57.210Z,20.90
2018-08-10T09:46:31.511Z,20.90
2018-08-10T09:49:05.678Z,21.20
2018-08-10T09:51:40.017Z,21.30
2018-08-10T09:54:14.289Z,21.20
2018-08-10T09:56:48.486Z,21.50
2018-08-10T09:59:22.689Z,21.40
2018-08-10T10:02:02.306Z,21.70
2018-08-10T10:04:36.514Z,21.80
2018-08-10T10:07:10.805Z,21.80
2018-08-10T10:09:45.103Z,21.90
2018-08-10T10:12:19.474Z,22.10
2018-08-10T10:14:53.761Z,22.00
2018-08-10T10:17:28.166Z,21.50
2018-08-10T10:20:02.401Z,21.60
2018-08-10T10:22:36.769Z,22.00
2018-08-10T10:25:10.986Z,22.10
2018-08-10T10:27:45.638Z,22.10
2018-08-10T10:30:19.942Z,22.40
2018-08-10T10:32:54.137Z,22.40
2018-08-10T10:35:28.450Z,22.50
2018-08-10T10:38:02.818Z,22.60
2018-08-10T10:40:37.011Z,22.80
2018-08-10T10:43:11.293Z,22.70
2018-08-10T10:45:45.632Z,22.70
2018-08-10T10:48:19.986Z,23.00
2018-08-10T10:50:54.440Z,22.90
2018-08-10T10:53:28.734Z,22.80
2018-08-10T10:56:02.944Z,22.80
2018-08-10T10:58:38.578Z,22.00
2018-08-10T11:01:13.043Z,21.80
2018-08-10T11:03:47.226Z,22.20
2018-08-10T11:06:21.520Z,22.70
2018-08-10T11:08:55.813Z,22.90
2018-08-10T11:11:30.018Z,23.10
2018-08-10T11:14:04.326Z,22.90
2018-08-10T11:16:38.886Z,23.20
2018-08-10T11:19:13.238Z,23.50
2018-08-10T11:21:47.549Z,23.60
2018-08-10T11:24:21.868Z,23.60
2018-08-10T11:26:56.183Z,23.70
2018-08-10T11:29:30.675Z,23.90
2018-08-10T11:32:04.988Z,23.70
2018-08-10T11:34:39.264Z,24.10
2018-08-10T11:37:13.567Z,24.10
2018-08-10T11:39:47.945Z,23.90
2018-08-10T11:42:22.098Z,23.40
2018-08-10T11:45:31.833Z,23.10
2018-08-10T11:48:06.246Z,22.80
2018-08-10T11:50:40.662Z,22.60
2018-08-10T11:53:15.071Z,22.40
2018-08-10T11:55:49.349Z,22.30
2018-08-10T11:58:24.059Z,22.30
2018-08-10T12:00:58.554Z,22.00
2018-08-10T12:03:32.806Z,22.00
2018-08-10T12:06:07.195Z,21.80
2018-08-10T12:08:41.501Z,21.70
2018-08-10T12:11:15.905Z,21.60
2018-08-10T12:13:50.098Z,21.70
2018-08-10T12:16:24.505Z,21.80
2018-08-10T12:18:58.825Z,22.40
2018-08-10T12:21:33.206Z,23.00
2018-08-10T12:24:07.551Z,23.60
2018-08-10T12:26:41.922Z,23.70
2018-08-10T12:29:16.298Z,23.70
2018-08-10T12:31:50.713Z,23.80
2018-08-10T12:34:24.973Z,24.10
2018-08-10T12:36:59.291Z,24.30
2018-08-10T12:39:33.567Z,24.50
2018-08-10T12:42:07.866Z,24.10
2018-08-10T12:44:42.153Z,24.30
2018-08-10T12:47:16.450Z,24.60
2018-08-10T12:49:50.849Z,24.60
2018-08-10T12:52:25.318Z,24.10
2018-08-10T12:54:59.563Z,24.30
2018-08-10T12:57:34.005Z,24.70
2018-08-10T13:00:10.309Z,24.90
2018-08-10T13:02:44.874Z,24.70
2018-08-10T13:05:19.038Z,24.60
2018-08-10T13:07:53.375Z,24.80
2018-08-10T13:10:27.677Z,25.10
2018-08-10T13:13:01.961Z,24.90
2018-08-10T13:15:36.305Z,24.60
2018-08-10T13:18:10.679Z,24.60
2018-08-10T13:20:45.006Z,24.80
2018-08-10T13:23:19.182Z,25.00
2018-08-10T13:25:53.563Z,25.50
2018-08-10T13:28:28.002Z,25.20
2018-08-10T13:31:02.258Z,24.60
2018-08-10T13:33:36.406Z,24.50
2018-08-10T13:36:10.680Z,24.50
2018-08-10T13:38:44.961Z,24.80
2018-08-10T13:41:19.241Z,24.50
2018-08-10T13:43:54.090Z,24.50
2018-08-10T13:46:28.299Z,24.50
2018-08-10T13:49:02.786Z,24.60
2018-08-10T13:51:37.085Z,24.70
2018-08-10T13:54:11.287Z,24.90
2018-08-10T13:56:45.614Z,25.20
2018-08-10T13:59:19.871Z,25.00
2018-08-10T14:01:54.202Z,24.90
2018-08-10T14:04:28.560Z,25.00
2018-08-10T14:07:02.819Z,25.20
2018-08-10T14:09:37.001Z,25.40
2018-08-10T14:12:11.278Z,25.30
2018-08-10T14:14:45.558Z,25.50
2018-08-10T14:17:19.717Z,25.40
2018-08-10T14:19:54.182Z,25.20
2018-08-10T14:22:28.481Z,25.20
2018-08-10T14:25:02.666Z,25.00
2018-08-10T14:27:36.938Z,25.20
2018-08-10T14:30:14.026Z,24.80
2018-08-10T14:32:48.161Z,24.90
2018-08-10T14:35:22.662Z,25.40
2018-08-10T14:37:56.891Z,25.50
2018-08-10T14:40:31.065Z,24.90
2018-08-10T14:43:05.218Z,24.70
2018-08-10T14:45:39.457Z,24.50
2018-08-10T14:48:13.737Z,24.70
2018-08-10T14:50:48.106Z,24.80
2018-08-10T14:53:22.298Z,25.00
2018-08-10T14:55:56.598Z,24.80
2018-08-10T14:58:30.781Z,25.00
2018-08-10T15:01:05.119Z,24.80
2018-08-10T15:03:39.382Z,25.30
2018-08-10T15:06:13.709Z,25.50
2018-08-10T15:08:47.894Z,25.40
2018-08-10T15:11:22.202Z,25.40
2018-08-10T15:13:56.487Z,25.80
2018-08-10T15:16:30.867Z,25.60
2018-08-10T15:19:05.173Z,25.50
2018-08-10T15:21:39.478Z,25.80
2018-08-10T15:24:13.750Z,26.00
2018-08-10T15:26:47.986Z,26.20
2018-08-10T15:29:22.306Z,25.90
2018-08-10T15:31:56.606Z,26.40
2018-08-10T15:34:30.882Z,26.40
2018-08-10T15:37:05.158Z,26.10
2018-08-10T15:39:39.354Z,26.00
2018-08-10T15:42:13.714Z,26.40
2018-08-10T15:44:48.061Z,26.60
2018-08-10T15:47:22.353Z,26.60
2018-08-10T15:49:56.741Z,26.70
2018-08-10T15:52:31.005Z,26.90
2018-08-10T15:55:05.667Z,26.80
2018-08-10T15:57:40.506Z,26.90
2018-08-10T16:00:18.401Z,26.90
2018-08-10T16:02:52.830Z,26.90
2018-08-10T16:05:27.143Z,26.60
2018-08-10T16:08:01.342Z,26.70
2018-08-10T16:10:35.616Z,26.70
2018-08-10T16:13:09.859Z,26.80
2018-08-10T16:15:44.157Z,26.70
2018-08-10T16:18:18.502Z,26.40
2018-08-10T16:20:52.754Z,26.20
2018-08-10T16:23:27.110Z,26.30
2018-08-10T16:26:01.391Z,25.90
2018-08-10T16:28:35.684Z,25.80
2018-08-10T16:31:09.969Z,26.00
2018-08-10T16:33:44.254Z,26.40
2018-08-10T16:36:18.567Z,26.00
2018-08-10T16:38:52.862Z,25.80
2018-08-10T16:41:27.198Z,25.60
2018-08-10T16:44:01.522Z,25.60
2018-08-10T16:46:35.870Z,25.40
2018-08-10T16:49:10.170Z,25.60
2018-08-10T16:51:44.535Z,25.30
2018-08-10T16:54:18.783Z,25.60
2018-08-10T16:56:53.141Z,25.60
2018-08-10T16:59:27.397Z,25.80
2018-08-10T17:02:01.651Z,26.00
2018-08-10T17:04:35.844Z,26.10
2018-08-10T17:07:10.092Z,26.00
2018-08-10T17:09:44.342Z,25.70
2018-08-10T17:12:18.667Z,25.60
2018-08-10T17:14:52.845Z,25.90
2018-08-10T17:17:27.151Z,25.90
2018-08-10T17:20:01.560Z,25.60
2018-08-10T17:22:35.839Z,25.40
2018-08-10T17:25:11.347Z,25.70
2018-08-10T17:27:45.709Z,25.90
2018-08-10T17:30:20.445Z,25.80
2018-08-10T17:32:54.715Z,25.90
2018-08-10T17:35:28.933Z,25.70
2018-08-10T17:38:03.341Z,25.30
2018-08-10T17:40:37.709Z,24.80
2018-08-10T17:43:11.892Z,24.80
2018-08-10T17:45:46.221Z,24.70
2018-08-10T17:48:20.403Z,24.50
2018-08-10T17:50:54.956Z,24.40
2018-08-10T17:53:29.087Z,24.20
2018-08-10T17:56:03.361Z,24.20
2018-08-10T17:58:37.711Z,24.20
2018-08-10T18:01:11.997Z,24.30
2018-08-10T18:03:46.161Z,24.40
2018-08-10T18:06:20.361Z,24.40
2018-08-10T18:08:55.346Z,24.50
2018-08-10T18:11:29.702Z,24.50
2018-08-10T18:14:04.418Z,24.50
2018-08-10T18:16:38.741Z,24.50
2018-08-10T18:19:13.229Z,24.30
2018-08-10T18:21:47.510Z,24.30
2018-08-10T18:24:22.039Z,24.10
2018-08-10T18:26:56.387Z,24.10
2018-08-10T18:29:30.637Z,24.10
2018-08-10T18:32:04.930Z,24.10
2018-08-10T18:34:39.121Z,23.80
2018-08-10T18:37:13.377Z,23.80
2018-08-10T18:39:47.891Z,23.80
2018-08-10T18:42:22.132Z,23.70
2018-08-10T18:44:56.443Z,23.70
2018-08-10T18:47:30.746Z,23.60
2018-08-10T18:50:05.751Z,23.50
2018-08-10T18:52:40.150Z,23.30
2018-08-10T18:55:15.898Z,23.30
2018-08-10T18:57:50.621Z,23.10
2018-08-10T19:00:25.820Z,23.20
2018-08-10T19:03:00.206Z,23.00
2018-08-10T19:05:34.597Z,23.00
2018-08-10T19:08:08.809Z,23.00
2018-08-10T19:10:43.127Z,22.90
2018-08-10T19:13:17.437Z,22.70
2018-08-10T19:15:51.845Z,22.60
2018-08-10T19:18:26.145Z,22.50
2018-08-10T19:21:00.648Z,22.50
2018-08-10T19:23:35.034Z,22.40
2018-08-10T19:26:09.299Z,22.40
2018-08-10T19:28:43.561Z,22.40
2018-08-10T19:31:17.966Z,22.30
2018-08-10T19:33:52.248Z,22.10
2018-08-10T19:36:26.675Z,22.00
2018-08-10T19:39:00.993Z,22.00
2018-08-10T19:41:35.183Z,22.00
2018-08-10T19:44:09.537Z,22.00
2018-08-10T19:46:43.748Z,22.00
2018-08-10T19:49:18.022Z,21.90
2018-08-10T19:51:52.313Z,21.70
2018-08-10T19:54:26.561Z,21.70
2018-08-10T19:57:00.830Z,21.60
2018-08-10T19:59:35.134Z,21.60
2018-08-10T20:02:09.345Z,21.40
2018-08-10T20:04:43.513Z,21.30
2018-08-10T20:07:17.898Z,21.30
2018-08-10T20:09:52.101Z,21.20
2018-08-10T20:12:26.410Z,21.20
2018-08-10T20:15:00.882Z,21.00
2018-08-10T20:17:34.986Z,21.00
2018-08-10T20:20:10.674Z,21.00
2018-08-10T20:22:45.165Z,20.90
2018-08-10T20:25:19.353Z,20.80
2018-08-10T20:27:53.745Z,20.80
2018-08-10T20:30:28.055Z,20.80
2018-08-10T20:33:02.382Z,20.70
2018-08-10T20:35:36.749Z,20.70
2018-08-10T20:38:11.045Z,20.60
2018-08-10T20:40:45.351Z,20.60
2018-08-10T20:43:19.717Z,20.60
2018-08-10T20:45:54.103Z,20.50
2018-08-10T20:48:28.314Z,20.50
2018-08-10T20:51:02.687Z,20.50
2018-08-10T20:53:36.959Z,20.50
2018-08-10T20:56:11.264Z,20.50
2018-08-10T20:58:45.551Z,20.40
2018-08-10T21:01:19.882Z,20.40
2018-08-10T21:03:54.268Z,20.40
2018-08-10T21:06:28.486Z,20.40
2018-08-10T21:09:02.976Z,20.40
2018-08-10T21:11:37.325Z,20.40
2018-08-10T21:14:11.510Z,20.40
2018-08-10T21:16:45.787Z,20.40
2018-08-10T21:19:20.103Z,20.40
2018-08-10T21:21:54.426Z,20.30
2018-08-10T21:24:28.733Z,20.20
2018-08-10T21:27:02.974Z,20.20
2018-08-10T21:29:37.153Z,20.00
2018-08-10T21:32:11.429Z,19.90
2018-08-10T21:34:45.735Z,19.90
2018-08-10T21:37:20.034Z,19.80
2018-08-10T21:39:54.499Z,19.70
2018-08-10T21:42:28.670Z,19.80
2018-08-10T21:45:02.981Z,19.80
2018-08-10T21:47:37.673Z,19.70
2018-08-10T21:50:13.209Z,19.70
2018-08-10T21:52:47.398Z,19.60
2018-08-10T21:55:21.743Z,19.60
2018-08-10T21:57:55.941Z,19.60
2018-08-10T22:00:47.743Z,19.60
2018-08-10T22:03:23.107Z,19.50
2018-08-10T22:05:57.285Z,19.50
2018-08-10T22:08:31.562Z,19.40
2018-08-10T22:11:05.713Z,19.40
2018-08-10T22:13:45.273Z,19.40
2018-08-10T22:16:25.023Z,19.40
2018-08-10T22:19:04.450Z,19.40
2018-08-10T22:21:38.658Z,19.40
2018-08-10T22:24:13.244Z,19.40
2018-08-10T22:26:47.539Z,19.30
2018-08-10T22:29:21.757Z,19.30
2018-08-10T22:31:56.036Z,19.30
2018-08-10T22:34:30.481Z,19.30
2018-08-10T22:37:04.823Z,19.30
2018-08-10T22:39:39.266Z,19.20
2018-08-10T22:42:13.654Z,19.20
2018-08-10T22:44:47.918Z,19.20
2018-08-10T22:47:22.201Z,19.20
2018-08-10T22:49:56.538Z,19.20
2018-08-10T22:52:30.809Z,19.10
2018-08-10T22:55:05.458Z,19.10
2018-08-10T22:57:39.709Z,19.00
2018-08-10T23:00:14.059Z,19.10
2018-08-10T23:02:48.450Z,19.00
2018-08-10T23:05:22.854Z,19.00
2018-08-10T23:07:57.190Z,19.00
2018-08-10T23:10:31.509Z,19.00
2018-08-10T23:13:05.967Z,19.00
2018-08-10T23:15:40.224Z,18.90
2018-08-10T23:18:14.365Z,19.00
2018-08-10T23:20:48.704Z,19.00
2018-08-10T23:23:22.865Z,18.90
2018-08-10T23:25:57.169Z,19.00
2018-08-10T23:28:31.494Z,18.90
2018-08-10T23:31:06.118Z,18.90
2018-08-10T23:33:40.293Z,18.90
2018-08-10T23:36:14.482Z,18.90
2018-08-10T23:38:48.733Z,18.90
2018-08-10T23:41:22.915Z,18.90
2018-08-10T23:43:57.342Z,18.80
2018-08-10T23:46:31.651Z,18.90
2018-08-10T23:49:05.978Z,18.90
2018-08-10T23:51:40.225Z,18.80
2018-08-10T23:54:14.525Z,18.80
2018-08-10T23:56:48.857Z,18.70
2018-08-10T23:59:23.118Z,18.70
